sensor_id;sensor_type;location;lat;lon;timestamp;noise_LAeq;noise_LA_min;noise_LA_max;noise_LA01;noise_LA95
64996;Laerm;51545;51.568;6.998;2022-10-16T00:00:42;41.84;37.00;52.17;;
64996;Laerm;51545;51.568;6.998;2022-10-16T00:03:08;41.68;35.35;51.31;;
64996;Laerm;51545;51.568;6.998;2022-10-16T00:05:39;40.44;35.86;47.09;;
64996;Laerm;51545;51.568;6.998;2022-10-16T00:08:05;40.61;35.78;49.84;;
64996;Laerm;51545;51.568;6.998;2022-10-16T00:10:30;39.98;35.93;50.40;;
64996;Laerm;51545;51.568;6.998;2022-10-16T00:12:56;39.66;34.81;46.45;;
64996;Laerm;51545;51.568;6.998;2022-10-16T00:15:22;41.30;35.96;51.39;;
64996;Laerm;51545;51.568;6.998;2022-10-16T00:17:47;40.14;35.51;45.34;;
64996;Laerm;51545;51.568;6.998;2022-10-16T00:20:13;39.48;35.23;46.47;;
64996;Laerm;51545;51.568;6.998;2022-10-16T00:22:38;40.17;35.13;57.90;;
64996;Laerm;51545;51.568;6.998;2022-10-16T00:25:04;41.18;35.91;58.77;;
64996;Laerm;51545;51.568;6.998;2022-10-16T00:27:29;41.07;35.78;48.63;;
64996;Laerm;51545;51.568;6.998;2022-10-16T00:29:54;40.22;36.01;45.99;;
64996;Laerm;51545;51.568;6.998;2022-10-16T00:32:20;40.89;36.53;48.08;;
64996;Laerm;51545;51.568;6.998;2022-10-16T00:34:46;43.46;36.90;59.63;;
64996;Laerm;51545;51.568;6.998;2022-10-16T00:37:12;39.38;35.67;50.01;;
64996;Laerm;51545;51.568;6.998;2022-10-16T00:39:37;40.02;35.06;46.70;;
64996;Laerm;51545;51.568;6.998;2022-10-16T00:42:03;40.08;35.81;47.92;;
64996;Laerm;51545;51.568;6.998;2022-10-16T00:44:47;42.65;35.96;55.90;;
64996;Laerm;51545;51.568;6.998;2022-10-16T00:47:34;38.40;33.96;44.05;;
64996;Laerm;51545;51.568;6.998;2022-10-16T00:50:09;39.88;34.99;48.69;;
64996;Laerm;51545;51.568;6.998;2022-10-16T00:52:36;41.39;36.73;50.78;;
64996;Laerm;51545;51.568;6.998;2022-10-16T00:55:05;38.78;34.36;43.96;;
64996;Laerm;51545;51.568;6.998;2022-10-16T00:57:31;39.73;34.44;46.14;;
64996;Laerm;51545;51.568;6.998;2022-10-16T00:59:57;38.19;34.83;44.38;;
64996;Laerm;51545;51.568;6.998;2022-10-16T01:02:24;37.83;33.05;44.39;;
64996;Laerm;51545;51.568;6.998;2022-10-16T01:04:51;40.35;36.03;57.20;;
64996;Laerm;51545;51.568;6.998;2022-10-16T01:18:05;38.29;33.71;46.30;;
64996;Laerm;51545;51.568;6.998;2022-10-16T01:20:35;38.16;34.06;48.35;;
64996;Laerm;51545;51.568;6.998;2022-10-16T01:26:14;39.50;34.09;51.85;;
64996;Laerm;51545;51.568;6.998;2022-10-16T01:29:06;39.60;34.52;47.12;;
64996;Laerm;51545;51.568;6.998;2022-10-16T01:31:36;38.24;33.45;47.27;;
64996;Laerm;51545;51.568;6.998;2022-10-16T01:34:08;37.54;33.93;42.63;;
64996;Laerm;51545;51.568;6.998;2022-10-16T01:36:41;37.91;33.56;43.68;;
64996;Laerm;51545;51.568;6.998;2022-10-16T01:39:10;38.73;34.63;48.07;;
64996;Laerm;51545;51.568;6.998;2022-10-16T01:41:42;39.36;35.18;47.63;;
64996;Laerm;51545;51.568;6.998;2022-10-16T01:44:26;39.48;35.15;48.00;;
64996;Laerm;51545;51.568;6.998;2022-10-16T01:46:54;37.50;33.91;43.98;;
64996;Laerm;51545;51.568;6.998;2022-10-16T01:49:21;39.11;33.84;51.50;;
64996;Laerm;51545;51.568;6.998;2022-10-16T01:51:50;39.45;34.41;47.14;;
64996;Laerm;51545;51.568;6.998;2022-10-16T01:54:18;39.51;33.94;51.86;;
64996;Laerm;51545;51.568;6.998;2022-10-16T01:56:46;41.18;35.33;51.58;;
64996;Laerm;51545;51.568;6.998;2022-10-16T01:59:15;37.90;33.61;43.74;;
64996;Laerm;51545;51.568;6.998;2022-10-16T02:01:46;41.00;36.27;45.83;;
64996;Laerm;51545;51.568;6.998;2022-10-16T02:04:30;38.27;33.62;44.27;;
64996;Laerm;51545;51.568;6.998;2022-10-16T02:06:57;37.57;32.81;45.61;;
64996;Laerm;51545;51.568;6.998;2022-10-16T02:09:22;38.92;33.61;47.38;;
64996;Laerm;51545;51.568;6.998;2022-10-16T02:11:49;38.01;33.57;43.43;;
64996;Laerm;51545;51.568;6.998;2022-10-16T02:14:15;39.30;33.96;47.67;;
64996;Laerm;51545;51.568;6.998;2022-10-16T02:16:45;39.68;35.85;44.86;;
64996;Laerm;51545;51.568;6.998;2022-10-16T02:19:16;38.16;34.80;43.46;;
64996;Laerm;51545;51.568;6.998;2022-10-16T02:21:59;38.57;34.98;43.66;;
64996;Laerm;51545;51.568;6.998;2022-10-16T02:24:35;39.17;35.10;45.82;;
64996;Laerm;51545;51.568;6.998;2022-10-16T02:27:11;39.82;34.13;59.67;;
64996;Laerm;51545;51.568;6.998;2022-10-16T02:29:41;39.28;34.80;47.50;;
64996;Laerm;51545;51.568;6.998;2022-10-16T02:32:15;38.64;34.97;45.18;;
64996;Laerm;51545;51.568;6.998;2022-10-16T02:34:43;40.15;35.82;47.78;;
64996;Laerm;51545;51.568;6.998;2022-10-16T02:37:10;39.42;34.99;47.34;;
64996;Laerm;51545;51.568;6.998;2022-10-16T02:39:36;37.86;34.05;44.67;;
64996;Laerm;51545;51.568;6.998;2022-10-16T02:42:02;38.29;34.34;46.76;;
64996;Laerm;51545;51.568;6.998;2022-10-16T02:44:28;37.85;34.39;42.61;;
64996;Laerm;51545;51.568;6.998;2022-10-16T02:46:53;38.49;34.65;43.75;;
64996;Laerm;51545;51.568;6.998;2022-10-16T02:49:19;38.61;35.46;42.53;;
64996;Laerm;51545;51.568;6.998;2022-10-16T02:51:44;37.87;33.52;42.79;;
64996;Laerm;51545;51.568;6.998;2022-10-16T02:54:10;37.92;33.24;43.71;;
64996;Laerm;51545;51.568;6.998;2022-10-16T02:56:35;39.51;35.62;46.33;;
64996;Laerm;51545;51.568;6.998;2022-10-16T02:59:01;37.68;34.10;44.00;;
64996;Laerm;51545;51.568;6.998;2022-10-16T03:01:26;38.97;34.00;43.76;;
64996;Laerm;51545;51.568;6.998;2022-10-16T03:03:52;38.46;34.36;43.42;;
64996;Laerm;51545;51.568;6.998;2022-10-16T03:06:17;39.05;34.53;44.10;;
64996;Laerm;51545;51.568;6.998;2022-10-16T03:08:43;41.19;36.99;46.80;;
64996;Laerm;51545;51.568;6.998;2022-10-16T03:11:08;40.36;35.81;48.15;;
64996;Laerm;51545;51.568;6.998;2022-10-16T03:13:34;38.84;35.11;44.26;;
64996;Laerm;51545;51.568;6.998;2022-10-16T03:15:59;38.97;35.93;42.50;;
64996;Laerm;51545;51.568;6.998;2022-10-16T03:18:25;39.56;35.82;44.27;;
64996;Laerm;51545;51.568;6.998;2022-10-16T03:20:50;39.52;36.39;44.40;;
64996;Laerm;51545;51.568;6.998;2022-10-16T03:23:16;39.79;35.83;46.16;;
64996;Laerm;51545;51.568;6.998;2022-10-16T03:25:41;39.29;35.41;45.46;;
64996;Laerm;51545;51.568;6.998;2022-10-16T03:28:06;39.97;36.26;46.45;;
64996;Laerm;51545;51.568;6.998;2022-10-16T03:30:32;39.19;35.71;44.05;;
64996;Laerm;51545;51.568;6.998;2022-10-16T03:32:57;40.82;36.13;49.73;;
64996;Laerm;51545;51.568;6.998;2022-10-16T03:35:23;39.97;36.28;45.35;;
64996;Laerm;51545;51.568;6.998;2022-10-16T03:37:49;39.97;37.21;43.46;;
64996;Laerm;51545;51.568;6.998;2022-10-16T03:40:15;41.11;37.29;53.14;;
64996;Laerm;51545;51.568;6.998;2022-10-16T03:42:44;39.79;36.30;46.37;;
64996;Laerm;51545;51.568;6.998;2022-10-16T03:45:10;41.19;37.20;45.67;;
64996;Laerm;51545;51.568;6.998;2022-10-16T03:47:36;40.96;36.81;45.51;;
64996;Laerm;51545;51.568;6.998;2022-10-16T03:50:02;41.02;36.87;46.20;;
64996;Laerm;51545;51.568;6.998;2022-10-16T03:52:28;40.76;34.81;52.74;;
64996;Laerm;51545;51.568;6.998;2022-10-16T03:54:53;38.97;34.85;50.21;;
64996;Laerm;51545;51.568;6.998;2022-10-16T03:57:19;39.13;34.61;43.18;;
64996;Laerm;51545;51.568;6.998;2022-10-16T03:59:45;39.96;36.12;51.33;;
64996;Laerm;51545;51.568;6.998;2022-10-16T04:02:11;41.23;37.19;45.59;;
64996;Laerm;51545;51.568;6.998;2022-10-16T04:04:36;40.74;35.59;62.05;;
64996;Laerm;51545;51.568;6.998;2022-10-16T04:07:02;39.95;35.76;44.49;;
64996;Laerm;51545;51.568;6.998;2022-10-16T04:09:27;39.88;35.43;44.95;;
64996;Laerm;51545;51.568;6.998;2022-10-16T04:11:53;40.20;36.51;45.63;;
64996;Laerm;51545;51.568;6.998;2022-10-16T04:14:18;38.92;35.51;49.24;;
64996;Laerm;51545;51.568;6.998;2022-10-16T04:16:44;39.45;35.20;45.78;;
64996;Laerm;51545;51.568;6.998;2022-10-16T04:19:10;39.87;35.89;47.71;;
64996;Laerm;51545;51.568;6.998;2022-10-16T04:21:36;40.64;36.55;57.82;;
64996;Laerm;51545;51.568;6.998;2022-10-16T04:24:02;40.57;34.88;57.35;;
64996;Laerm;51545;51.568;6.998;2022-10-16T04:26:28;39.76;35.76;47.50;;
64996;Laerm;51545;51.568;6.998;2022-10-16T04:28:53;39.55;35.40;46.60;;
64996;Laerm;51545;51.568;6.998;2022-10-16T04:31:19;40.22;36.38;48.70;;
64996;Laerm;51545;51.568;6.998;2022-10-16T04:33:44;40.27;35.42;46.52;;
64996;Laerm;51545;51.568;6.998;2022-10-16T04:36:10;40.13;36.97;44.88;;
64996;Laerm;51545;51.568;6.998;2022-10-16T04:38:35;40.79;36.08;49.67;;
64996;Laerm;51545;51.568;6.998;2022-10-16T04:41:03;40.58;35.46;50.04;;
64996;Laerm;51545;51.568;6.998;2022-10-16T04:43:28;45.51;35.84;64.76;;
64996;Laerm;51545;51.568;6.998;2022-10-16T04:45:54;41.96;36.96;61.84;;
64996;Laerm;51545;51.568;6.998;2022-10-16T04:48:20;40.04;36.03;51.42;;
64996;Laerm;51545;51.568;6.998;2022-10-16T04:50:46;41.79;36.14;47.62;;
64996;Laerm;51545;51.568;6.998;2022-10-16T04:53:11;39.88;36.06;55.09;;
64996;Laerm;51545;51.568;6.998;2022-10-16T04:55:37;40.45;35.85;51.58;;
64996;Laerm;51545;51.568;6.998;2022-10-16T04:58:03;39.36;35.37;51.54;;
64996;Laerm;51545;51.568;6.998;2022-10-16T05:00:29;41.68;35.45;56.37;;
64996;Laerm;51545;51.568;6.998;2022-10-16T05:02:55;40.59;36.53;50.65;;
64996;Laerm;51545;51.568;6.998;2022-10-16T05:05:21;41.14;36.47;49.48;;
64996;Laerm;51545;51.568;6.998;2022-10-16T05:07:47;39.38;34.99;52.51;;
64996;Laerm;51545;51.568;6.998;2022-10-16T05:10:13;40.69;35.57;51.71;;
64996;Laerm;51545;51.568;6.998;2022-10-16T05:12:38;41.37;36.49;53.21;;
64996;Laerm;51545;51.568;6.998;2022-10-16T05:15:04;40.04;35.14;50.09;;
64996;Laerm;51545;51.568;6.998;2022-10-16T05:17:30;41.07;35.63;54.52;;
64996;Laerm;51545;51.568;6.998;2022-10-16T05:19:55;41.37;35.97;55.58;;
64996;Laerm;51545;51.568;6.998;2022-10-16T05:22:21;41.13;36.49;46.79;;
64996;Laerm;51545;51.568;6.998;2022-10-16T05:24:47;41.18;36.33;48.59;;
64996;Laerm;51545;51.568;6.998;2022-10-16T05:27:12;45.02;36.58;64.96;;
64996;Laerm;51545;51.568;6.998;2022-10-16T05:29:45;42.70;36.53;61.86;;
64996;Laerm;51545;51.568;6.998;2022-10-16T05:32:11;46.01;37.44;70.13;;
64996;Laerm;51545;51.568;6.998;2022-10-16T05:34:36;40.97;35.08;52.44;;
64996;Laerm;51545;51.568;6.998;2022-10-16T05:37:02;49.08;36.81;66.46;;
64996;Laerm;51545;51.568;6.998;2022-10-16T05:39:27;44.64;36.74;65.81;;
64996;Laerm;51545;51.568;6.998;2022-10-16T05:41:52;41.95;36.35;55.08;;
64996;Laerm;51545;51.568;6.998;2022-10-16T05:44:18;42.08;37.22;55.08;;
64996;Laerm;51545;51.568;6.998;2022-10-16T05:46:46;42.05;37.76;51.76;;
64996;Laerm;51545;51.568;6.998;2022-10-16T05:49:11;41.99;37.77;52.99;;
64996;Laerm;51545;51.568;6.998;2022-10-16T05:51:36;42.01;38.02;49.65;;
64996;Laerm;51545;51.568;6.998;2022-10-16T05:54:02;42.04;37.95;57.62;;
64996;Laerm;51545;51.568;6.998;2022-10-16T05:56:27;40.92;36.63;49.24;;
64996;Laerm;51545;51.568;6.998;2022-10-16T05:58:53;40.89;36.72;58.23;;
64996;Laerm;51545;51.568;6.998;2022-10-16T06:01:19;40.59;37.17;49.67;;
64996;Laerm;51545;51.568;6.998;2022-10-16T06:03:46;42.00;37.88;52.99;;
64996;Laerm;51545;51.568;6.998;2022-10-16T06:06:17;42.97;38.07;66.03;;
64996;Laerm;51545;51.568;6.998;2022-10-16T06:08:45;47.95;38.90;71.70;;
64996;Laerm;51545;51.568;6.998;2022-10-16T06:11:13;45.92;37.27;66.60;;
64996;Laerm;51545;51.568;6.998;2022-10-16T06:13:39;45.24;37.49;63.32;;
64996;Laerm;51545;51.568;6.998;2022-10-16T06:16:07;43.51;39.28;60.81;;
64996;Laerm;51545;51.568;6.998;2022-10-16T06:18:32;42.63;39.04;55.79;;
64996;Laerm;51545;51.568;6.998;2022-10-16T06:20:58;45.67;38.74;67.95;;
64996;Laerm;51545;51.568;6.998;2022-10-16T06:23:24;41.81;37.48;56.26;;
64996;Laerm;51545;51.568;6.998;2022-10-16T06:25:50;42.11;38.27;52.02;;
64996;Laerm;51545;51.568;6.998;2022-10-16T06:28:15;43.05;38.87;61.00;;
64996;Laerm;51545;51.568;6.998;2022-10-16T06:30:41;43.11;39.51;53.49;;
64996;Laerm;51545;51.568;6.998;2022-10-16T06:33:10;54.97;39.19;82.14;;
64996;Laerm;51545;51.568;6.998;2022-10-16T06:35:35;47.25;39.41;64.60;;
64996;Laerm;51545;51.568;6.998;2022-10-16T06:38:01;45.64;39.71;66.12;;
64996;Laerm;51545;51.568;6.998;2022-10-16T06:40:26;48.02;39.84;66.31;;
64996;Laerm;51545;51.568;6.998;2022-10-16T06:42:54;43.33;38.78;60.02;;
64996;Laerm;51545;51.568;6.998;2022-10-16T06:45:20;42.87;38.60;53.57;;
64996;Laerm;51545;51.568;6.998;2022-10-16T06:47:45;45.00;38.51;70.92;;
64996;Laerm;51545;51.568;6.998;2022-10-16T06:50:11;50.45;40.07;79.04;;
64996;Laerm;51545;51.568;6.998;2022-10-16T06:52:36;43.44;39.47;59.03;;
64996;Laerm;51545;51.568;6.998;2022-10-16T06:55:02;43.29;38.69;52.48;;
64996;Laerm;51545;51.568;6.998;2022-10-16T06:57:28;45.56;38.20;56.82;;
64996;Laerm;51545;51.568;6.998;2022-10-16T06:59:53;46.76;40.71;54.98;;
64996;Laerm;51545;51.568;6.998;2022-10-16T07:02:19;44.30;39.36;55.08;;
64996;Laerm;51545;51.568;6.998;2022-10-16T07:04:44;44.07;39.72;56.45;;
64996;Laerm;51545;51.568;6.998;2022-10-16T07:07:10;44.65;40.55;53.80;;
64996;Laerm;51545;51.568;6.998;2022-10-16T07:09:35;45.23;40.92;64.24;;
64996;Laerm;51545;51.568;6.998;2022-10-16T07:12:01;46.66;39.72;71.85;;
64996;Laerm;51545;51.568;6.998;2022-10-16T07:14:26;50.72;41.20;67.06;;
64996;Laerm;51545;51.568;6.998;2022-10-16T07:16:52;45.62;41.23;61.84;;
64996;Laerm;51545;51.568;6.998;2022-10-16T07:19:17;46.37;42.22;61.54;;
64996;Laerm;51545;51.568;6.998;2022-10-16T07:21:43;46.45;41.35;67.34;;
64996;Laerm;51545;51.568;6.998;2022-10-16T07:24:14;45.18;41.98;58.58;;
64996;Laerm;51545;51.568;6.998;2022-10-16T07:26:42;44.66;40.26;66.86;;
64996;Laerm;51545;51.568;6.998;2022-10-16T07:29:16;44.99;40.53;61.13;;
64996;Laerm;51545;51.568;6.998;2022-10-16T07:31:42;44.50;41.36;50.85;;
64996;Laerm;51545;51.568;6.998;2022-10-16T07:34:10;50.21;40.28;78.98;;
64996;Laerm;51545;51.568;6.998;2022-10-16T07:36:35;44.91;40.16;59.83;;
64996;Laerm;51545;51.568;6.998;2022-10-16T07:39:01;45.11;40.39;52.16;;
64996;Laerm;51545;51.568;6.998;2022-10-16T07:41:27;45.19;41.02;56.55;;
64996;Laerm;51545;51.568;6.998;2022-10-16T07:43:53;43.57;40.10;55.84;;
64996;Laerm;51545;51.568;6.998;2022-10-16T07:46:22;46.56;40.93;70.91;;
64996;Laerm;51545;51.568;6.998;2022-10-16T07:48:47;44.61;41.23;55.84;;
64996;Laerm;51545;51.568;6.998;2022-10-16T07:51:18;43.63;40.72;48.38;;
64996;Laerm;51545;51.568;6.998;2022-10-16T07:53:44;44.13;40.54;58.34;;
64996;Laerm;51545;51.568;6.998;2022-10-16T07:56:10;43.65;39.38;52.93;;
64996;Laerm;51545;51.568;6.998;2022-10-16T07:58:37;44.45;39.27;51.83;;
64996;Laerm;51545;51.568;6.998;2022-10-16T08:01:09;44.11;41.02;51.60;;
64996;Laerm;51545;51.568;6.998;2022-10-16T08:03:35;52.33;40.82;72.47;;
64996;Laerm;51545;51.568;6.998;2022-10-16T08:06:02;46.78;39.52;69.32;;
64996;Laerm;51545;51.568;6.998;2022-10-16T08:08:28;44.07;40.61;48.53;;
64996;Laerm;51545;51.568;6.998;2022-10-16T08:10:54;53.80;39.95;69.30;;
64996;Laerm;51545;51.568;6.998;2022-10-16T08:13:20;44.29;39.21;60.53;;
64996;Laerm;51545;51.568;6.998;2022-10-16T08:15:46;46.74;41.22;59.87;;
64996;Laerm;51545;51.568;6.998;2022-10-16T08:18:13;44.65;39.41;60.04;;
64996;Laerm;51545;51.568;6.998;2022-10-16T08:20:40;44.56;40.91;57.53;;
64996;Laerm;51545;51.568;6.998;2022-10-16T08:23:05;46.50;41.23;55.35;;
64996;Laerm;51545;51.568;6.998;2022-10-16T08:25:34;43.98;39.73;59.95;;
64996;Laerm;51545;51.568;6.998;2022-10-16T08:28:00;57.33;39.05;85.90;;
64996;Laerm;51545;51.568;6.998;2022-10-16T08:30:28;45.68;40.86;59.11;;
64996;Laerm;51545;51.568;6.998;2022-10-16T08:32:53;46.71;39.68;73.02;;
64996;Laerm;51545;51.568;6.998;2022-10-16T08:35:19;46.76;41.64;66.81;;
64996;Laerm;51545;51.568;6.998;2022-10-16T08:37:44;44.52;40.08;62.36;;
64996;Laerm;51545;51.568;6.998;2022-10-16T08:40:19;43.83;40.27;52.17;;
64996;Laerm;51545;51.568;6.998;2022-10-16T08:43:11;44.52;39.11;54.60;;
64996;Laerm;51545;51.568;6.998;2022-10-16T08:45:52;50.65;39.11;72.46;;
64996;Laerm;51545;51.568;6.998;2022-10-16T08:48:30;46.16;40.99;60.18;;
64996;Laerm;51545;51.568;6.998;2022-10-16T08:51:01;50.01;41.77;66.20;;
64996;Laerm;51545;51.568;6.998;2022-10-16T08:53:31;46.12;40.97;61.48;;
64996;Laerm;51545;51.568;6.998;2022-10-16T08:55:59;44.33;39.52;56.86;;
64996;Laerm;51545;51.568;6.998;2022-10-16T08:58:29;46.05;41.81;53.84;;
64996;Laerm;51545;51.568;6.998;2022-10-16T09:01:00;45.73;41.08;58.60;;
64996;Laerm;51545;51.568;6.998;2022-10-16T09:11:56;45.56;40.88;62.75;;
64996;Laerm;51545;51.568;6.998;2022-10-16T09:20:18;45.19;40.21;62.17;;
64996;Laerm;51545;51.568;6.998;2022-10-16T09:22:45;46.43;39.65;56.04;;
64996;Laerm;51545;51.568;6.998;2022-10-16T09:25:16;46.68;41.78;61.77;;
64996;Laerm;51545;51.568;6.998;2022-10-16T09:27:47;47.65;39.30;56.55;;
64996;Laerm;51545;51.568;6.998;2022-10-16T09:30:19;46.05;41.12;61.24;;
64996;Laerm;51545;51.568;6.998;2022-10-16T09:32:46;46.66;40.18;65.56;;
64996;Laerm;51545;51.568;6.998;2022-10-16T09:35:18;46.15;40.60;61.65;;
64996;Laerm;51545;51.568;6.998;2022-10-16T09:37:48;50.00;39.22;76.82;;
64996;Laerm;51545;51.568;6.998;2022-10-16T09:40:30;45.11;38.91;72.11;;
64996;Laerm;51545;51.568;6.998;2022-10-16T09:45:39;45.41;38.58;63.50;;
64996;Laerm;51545;51.568;6.998;2022-10-16T09:48:13;45.80;38.93;67.28;;
64996;Laerm;51545;51.568;6.998;2022-10-16T09:50:43;47.83;40.83;69.25;;
64996;Laerm;51545;51.568;6.998;2022-10-16T09:53:20;44.60;38.57;69.45;;
64996;Laerm;51545;51.568;6.998;2022-10-16T09:55:52;49.00;40.74;65.25;;
64996;Laerm;51545;51.568;6.998;2022-10-16T09:58:21;46.09;40.86;67.85;;
64996;Laerm;51545;51.568;6.998;2022-10-16T10:00:53;45.00;40.45;63.71;;
64996;Laerm;51545;51.568;6.998;2022-10-16T10:03:40;46.43;39.84;58.14;;
64996;Laerm;51545;51.568;6.998;2022-10-16T10:06:22;46.58;40.77;70.89;;
64996;Laerm;51545;51.568;6.998;2022-10-16T10:09:00;60.64;39.74;84.11;;
64996;Laerm;51545;51.568;6.998;2022-10-16T10:14:15;45.77;40.24;66.57;;
64996;Laerm;51545;51.568;6.998;2022-10-16T10:16:41;47.36;40.34;68.86;;
64996;Laerm;51545;51.568;6.998;2022-10-16T10:19:15;48.05;40.00;70.30;;
64996;Laerm;51545;51.568;6.998;2022-10-16T10:21:41;51.80;41.60;78.53;;
64996;Laerm;51545;51.568;6.998;2022-10-16T10:24:18;47.65;41.14;76.68;;
64996;Laerm;51545;51.568;6.998;2022-10-16T10:27:09;62.46;40.71;95.39;;
64996;Laerm;51545;51.568;6.998;2022-10-16T10:32:56;44.49;38.14;59.15;;
64996;Laerm;51545;51.568;6.998;2022-10-16T10:38:25;44.42;38.93;65.69;;
64996;Laerm;51545;51.568;6.998;2022-10-16T10:52:48;48.14;40.68;67.82;;
64996;Laerm;51545;51.568;6.998;2022-10-16T10:55:40;53.69;39.45;81.76;;
64996;Laerm;51545;51.568;6.998;2022-10-16T10:58:26;50.25;40.34;74.60;;
64996;Laerm;51545;51.568;6.998;2022-10-16T11:01:06;50.65;36.98;79.71;;
64996;Laerm;51545;51.568;6.998;2022-10-16T11:06:49;42.82;36.30;65.83;;
64996;Laerm;51545;51.568;6.998;2022-10-16T11:09:36;41.73;37.77;60.53;;
64996;Laerm;51545;51.568;6.998;2022-10-16T11:12:09;43.21;38.33;54.68;;
64996;Laerm;51545;51.568;6.998;2022-10-16T11:14:48;46.39;42.07;58.25;;
64996;Laerm;51545;51.568;6.998;2022-10-16T11:17:23;45.34;39.23;62.19;;
64996;Laerm;51545;51.568;6.998;2022-10-16T11:19:58;43.06;38.24;54.73;;
64996;Laerm;51545;51.568;6.998;2022-10-16T11:22:40;44.48;40.93;51.91;;
64996;Laerm;51545;51.568;6.998;2022-10-16T11:25:15;43.85;39.29;57.14;;
64996;Laerm;51545;51.568;6.998;2022-10-16T11:27:52;43.50;38.15;59.76;;
64996;Laerm;51545;51.568;6.998;2022-10-16T11:30:29;44.44;40.06;61.38;;
64996;Laerm;51545;51.568;6.998;2022-10-16T11:35:41;48.17;41.47;65.31;;
64996;Laerm;51545;51.568;6.998;2022-10-16T11:41:12;52.74;40.70;76.42;;
64996;Laerm;51545;51.568;6.998;2022-10-16T11:43:52;46.94;39.95;66.65;;
64996;Laerm;51545;51.568;6.998;2022-10-16T11:46:24;45.78;38.79;59.69;;
64996;Laerm;51545;51.568;6.998;2022-10-16T11:51:48;49.56;39.75;74.52;;
64996;Laerm;51545;51.568;6.998;2022-10-16T11:56:48;51.62;41.20;71.87;;
64996;Laerm;51545;51.568;6.998;2022-10-16T11:59:32;58.44;39.22;85.41;;
64996;Laerm;51545;51.568;6.998;2022-10-16T12:05:02;45.25;38.74;67.02;;
64996;Laerm;51545;51.568;6.998;2022-10-16T12:07:41;45.53;40.43;61.93;;
64996;Laerm;51545;51.568;6.998;2022-10-16T12:10:24;46.03;39.55;66.01;;
64996;Laerm;51545;51.568;6.998;2022-10-16T12:12:51;47.07;41.71;63.55;;
64996;Laerm;51545;51.568;6.998;2022-10-16T12:17:49;46.30;40.05;70.70;;
64996;Laerm;51545;51.568;6.998;2022-10-16T12:20:19;47.10;41.11;69.60;;
64996;Laerm;51545;51.568;6.998;2022-10-16T12:22:56;48.59;40.22;69.42;;
64996;Laerm;51545;51.568;6.998;2022-10-16T12:25:55;48.20;40.39;75.85;;
64996;Laerm;51545;51.568;6.998;2022-10-16T12:28:27;43.59;38.56;62.87;;
64996;Laerm;51545;51.568;6.998;2022-10-16T12:30:59;44.76;38.98;62.12;;
64996;Laerm;51545;51.568;6.998;2022-10-16T12:33:28;43.87;38.27;54.45;;
64996;Laerm;51545;51.568;6.998;2022-10-16T12:35:55;43.81;38.69;64.23;;
64996;Laerm;51545;51.568;6.998;2022-10-16T12:38:26;45.85;40.00;70.67;;
64996;Laerm;51545;51.568;6.998;2022-10-16T12:41:06;57.62;41.50;75.96;;
64996;Laerm;51545;51.568;6.998;2022-10-16T12:43:46;58.06;40.88;77.04;;
64996;Laerm;51545;51.568;6.998;2022-10-16T12:48:44;53.93;41.50;71.09;;
64996;Laerm;51545;51.568;6.998;2022-10-16T12:51:12;57.26;40.26;81.18;;
64996;Laerm;51545;51.568;6.998;2022-10-16T12:53:37;54.30;39.82;73.40;;
64996;Laerm;51545;51.568;6.998;2022-10-16T12:56:22;47.07;39.20;66.14;;
64996;Laerm;51545;51.568;6.998;2022-10-16T12:59:32;45.67;39.78;62.26;;
64996;Laerm;51545;51.568;6.998;2022-10-16T13:04:45;61.05;39.51;82.31;;
64996;Laerm;51545;51.568;6.998;2022-10-16T13:16:20;55.65;37.79;73.72;;
64996;Laerm;51545;51.568;6.998;2022-10-16T13:21:53;61.78;38.94;87.95;;
64996;Laerm;51545;51.568;6.998;2022-10-16T13:30:02;56.76;40.62;74.29;;
64996;Laerm;51545;51.568;6.998;2022-10-16T13:32:36;54.65;39.32;77.61;;
64996;Laerm;51545;51.568;6.998;2022-10-16T13:35:01;57.36;41.53;75.52;;
64996;Laerm;51545;51.568;6.998;2022-10-16T13:37:27;58.11;39.31;74.46;;
64996;Laerm;51545;51.568;6.998;2022-10-16T13:40:28;59.63;38.99;79.61;;
64996;Laerm;51545;51.568;6.998;2022-10-16T13:42:53;60.21;41.08;80.24;;
64996;Laerm;51545;51.568;6.998;2022-10-16T13:45:21;62.48;41.16;78.54;;
64996;Laerm;51545;51.568;6.998;2022-10-16T13:47:47;60.99;41.05;80.37;;
64996;Laerm;51545;51.568;6.998;2022-10-16T13:50:16;58.90;41.68;73.59;;
64996;Laerm;51545;51.568;6.998;2022-10-16T13:52:42;59.34;41.65;79.49;;
64996;Laerm;51545;51.568;6.998;2022-10-16T13:55:14;62.04;42.08;79.75;;
64996;Laerm;51545;51.568;6.998;2022-10-16T13:57:41;58.12;39.55;77.06;;
64996;Laerm;51545;51.568;6.998;2022-10-16T14:00:23;56.16;38.11;72.47;;
64996;Laerm;51545;51.568;6.998;2022-10-16T14:03:01;54.61;39.86;77.98;;
64996;Laerm;51545;51.568;6.998;2022-10-16T14:05:27;59.71;39.03;79.12;;
64996;Laerm;51545;51.568;6.998;2022-10-16T14:07:53;57.65;39.81;74.71;;
64996;Laerm;51545;51.568;6.998;2022-10-16T14:10:29;60.18;39.64;82.61;;
64996;Laerm;51545;51.568;6.998;2022-10-16T14:13:04;59.61;39.74;80.93;;
64996;Laerm;51545;51.568;6.998;2022-10-16T14:15:32;58.87;38.83;74.21;;
64996;Laerm;51545;51.568;6.998;2022-10-16T14:17:59;60.06;38.15;75.92;;
64996;Laerm;51545;51.568;6.998;2022-10-16T14:20:27;57.00;38.96;75.27;;
64996;Laerm;51545;51.568;6.998;2022-10-16T14:23:16;59.13;39.60;75.76;;
64996;Laerm;51545;51.568;6.998;2022-10-16T14:25:44;60.67;40.06;78.54;;
64996;Laerm;51545;51.568;6.998;2022-10-16T14:28:22;59.78;41.62;79.17;;
64996;Laerm;51545;51.568;6.998;2022-10-16T14:30:54;59.83;40.20;83.63;;
64996;Laerm;51545;51.568;6.998;2022-10-16T14:38:24;62.35;40.54;83.02;;
64996;Laerm;51545;51.568;6.998;2022-10-16T14:40:50;53.09;39.01;74.92;;
64996;Laerm;51545;51.568;6.998;2022-10-16T14:43:29;52.95;40.14;67.71;;
64996;Laerm;51545;51.568;6.998;2022-10-16T14:45:56;54.55;37.35;70.96;;
64996;Laerm;51545;51.568;6.998;2022-10-16T14:48:23;57.79;40.04;81.40;;
64996;Laerm;51545;51.568;6.998;2022-10-16T14:50:49;56.41;39.65;74.92;;
64996;Laerm;51545;51.568;6.998;2022-10-16T14:53:15;55.46;38.69;71.04;;
64996;Laerm;51545;51.568;6.998;2022-10-16T14:55:41;61.11;39.07;81.57;;
64996;Laerm;51545;51.568;6.998;2022-10-16T14:58:15;63.87;39.75;84.36;;
64996;Laerm;51545;51.568;6.998;2022-10-16T15:00:41;63.48;40.71;81.59;;
64996;Laerm;51545;51.568;6.998;2022-10-16T15:03:07;62.46;39.80;80.28;;
64996;Laerm;51545;51.568;6.998;2022-10-16T15:05:32;56.55;41.40;70.45;;
64996;Laerm;51545;51.568;6.998;2022-10-16T15:07:58;63.54;41.80;85.12;;
64996;Laerm;51545;51.568;6.998;2022-10-16T15:10:26;62.60;40.24;81.53;;
64996;Laerm;51545;51.568;6.998;2022-10-16T15:12:53;63.27;41.08;82.02;;
64996;Laerm;51545;51.568;6.998;2022-10-16T15:15:37;57.45;39.80;75.58;;
64996;Laerm;51545;51.568;6.998;2022-10-16T15:18:03;61.91;41.04;85.86;;
64996;Laerm;51545;51.568;6.998;2022-10-16T15:20:38;60.23;41.11;80.86;;
64996;Laerm;51545;51.568;6.998;2022-10-16T15:23:13;58.51;40.85;77.37;;
64996;Laerm;51545;51.568;6.998;2022-10-16T15:25:44;58.29;40.64;78.92;;
64996;Laerm;51545;51.568;6.998;2022-10-16T15:28:11;60.52;38.46;76.82;;
64996;Laerm;51545;51.568;6.998;2022-10-16T15:30:38;59.04;38.73;76.88;;
64996;Laerm;51545;51.568;6.998;2022-10-16T15:33:04;58.34;37.72;80.10;;
64996;Laerm;51545;51.568;6.998;2022-10-16T15:35:30;60.99;39.58;81.39;;